Time;durP1;ratioP1;P1;durP2;ratioP2;P2;SDS_P1;SDS_P2;PMS_P1;PMS_P2;Temp;Humidity;BMP_temperature;BMP_pressure;BME280_temperature;BME280_humidity;BME280_pressure;Samples;Min_cycle;Max_cycle;Signal;HPM_P1;HPM_P2
2022/12/12 00:01:21;;;;;;;;;;;;;;;2.88;58.91;98427.59;4360216;32;33091;-67
2022/12/12 00:03:49;;;;;;;;;;;;;;;3.21;57.19;98421.91;4361601;32;34147;-66
2022/12/12 00:06:16;;;;;;;;;;;;;;;2.37;59.54;98422.84;4356531;32;32582;-66
2022/12/12 00:08:44;;;;;;;;;;;;;;;2.75;57.99;98428.38;4357729;32;32835;-66
2022/12/12 00:11:12;;;;;;;;;;;;;;;2.92;58.30;98426.44;4359671;32;32003;-67
2022/12/12 00:13:39;;;;;;;;;;;;;;;2.22;60.52;98432.59;4358432;32;34295;-67
2022/12/12 00:16:07;;;;;;;;;;;;;;;2.56;58.42;98433.97;4360140;32;34047;-68
2022/12/12 00:18:35;;;;;;;;;;;;;;;2.24;59.59;98441.25;4359789;32;35217;-68
2022/12/12 00:21:04;;;;;;;;;;;;;;;2.97;57.92;98443.69;4355428;32;33526;-67
2022/12/12 00:23:31;;;;;;;;;;;;;;;3.24;57.09;98441.06;4357383;32;35325;-69
2022/12/12 00:26:00;;;;;;;;;;;;;;;2.82;56.21;98441.19;4359834;32;34237;-67
2022/12/12 00:28:27;;;;;;;;;;;;;;;3.30;56.37;98446.91;4356306;32;34344;-67
2022/12/12 00:30:54;;;;;;;;;;;;;;;2.81;56.83;98458.84;4357479;32;33153;-67
2022/12/12 00:33:22;;;;;;;;;;;;;;;2.16;60.08;98454.09;4355536;32;33967;-68
2022/12/12 00:35:50;;;;;;;;;;;;;;;2.44;58.66;98466.44;4358671;32;33445;-70
2022/12/12 00:38:18;;;;;;;;;;;;;;;3.18;57.15;98467.06;4359433;32;32743;-67
2022/12/12 00:40:46;;;;;;;;;;;;;;;2.25;57.67;98465.88;4360338;32;33261;-67
2022/12/12 00:43:13;;;;;;;;;;;;;;;2.74;57.23;98466.31;4357233;32;34085;-70
2022/12/12 00:45:40;;;;;;;;;;;;;;;3.59;55.65;98460.84;4360219;32;35520;-68
2022/12/12 00:48:08;;;;;;;;;;;;;;;2.48;57.63;98469.75;4357801;32;34153;-70
2022/12/12 00:50:35;;;;;;;;;;;;;;;2.38;58.30;98461.56;4355696;32;33189;-68
2022/12/12 00:53:02;;;;;;;;;;;;;;;2.96;57.58;98462.31;4361113;32;32742;-69
2022/12/12 00:55:30;;;;;;;;;;;;;;;3.11;57.25;98463.09;4360565;32;34498;-70
2022/12/12 00:57:57;;;;;;;;;;;;;;;3.15;56.89;98452.25;4359898;32;34324;-69
2022/12/12 01:00:24;;;;;;;;;;;;;;;2.72;57.68;98451.50;4361370;32;33229;-67
2022/12/12 01:02:53;;;;;;;;;;;;;;;3.07;57.36;98449.25;4357732;32;32962;-68
2022/12/12 01:05:21;;;;;;;;;;;;;;;3.46;56.42;98442.28;4347032;32;34132;-67
2022/12/12 01:07:48;;;;;;;;;;;;;;;3.79;54.93;98452.44;4359968;32;34207;-67
2022/12/12 01:10:15;;;;;;;;;;;;;;;4.10;54.32;98450.31;4351577;32;33470;-68
2022/12/12 01:12:43;;;;;;;;;;;;;;;3.44;54.60;98446.84;4359368;32;34883;-66
2022/12/12 01:15:10;;;;;;;;;;;;;;;3.15;56.99;98446.13;4356390;32;34450;-68
2022/12/12 01:17:38;;;;;;;;;;;;;;;3.50;56.34;98444.63;4361988;32;33659;-66
2022/12/12 01:20:06;;;;;;;;;;;;;;;3.52;56.84;98446.31;4359479;32;33153;-70
2022/12/12 01:22:33;;;;;;;;;;;;;;;2.84;58.16;98448.09;4359302;32;34911;-68
2022/12/12 01:25:01;;;;;;;;;;;;;;;2.44;58.80;98453.25;4358051;32;34220;-67
2022/12/12 01:27:29;;;;;;;;;;;;;;;2.74;58.83;98452.25;4358574;32;34535;-66
2022/12/12 01:30:00;;;;;;;;;;;;;;;3.22;55.55;98453.53;4359374;32;33672;-67
2022/12/12 01:32:28;;;;;;;;;;;;;;;2.96;57.69;98449.09;4357152;32;34497;-68
2022/12/12 01:34:55;;;;;;;;;;;;;;;3.14;57.02;98444.41;4359763;32;34239;-68
2022/12/12 01:37:22;;;;;;;;;;;;;;;3.41;56.51;98445.25;4359220;32;34469;-67
2022/12/12 01:39:49;;;;;;;;;;;;;;;3.43;56.14;98435.38;4359606;32;34444;-66
2022/12/12 01:42:17;;;;;;;;;;;;;;;3.50;55.47;98435.88;4361578;32;34558;-65
2022/12/12 01:44:46;;;;;;;;;;;;;;;2.82;56.61;98439.37;4361221;32;34017;-65
2022/12/12 01:47:14;;;;;;;;;;;;;;;3.32;55.68;98445.00;4359289;32;34009;-69
2022/12/12 01:49:42;;;;;;;;;;;;;;;3.03;57.17;98439.81;4360392;32;33161;-66
2022/12/12 01:52:13;;;;;;;;;;;;;;;2.61;58.18;98427.56;4358296;32;33941;-66
2022/12/12 01:54:41;;;;;;;;;;;;;;;1.38;62.47;98442.91;4359115;32;34246;-64
2022/12/12 01:57:12;;;;;;;;;;;;;;;2.12;59.17;98426.19;4358859;32;35363;-65
2022/12/12 01:59:39;;;;;;;;;;;;;;;2.62;57.28;98421.34;4345914;32;32895;-66
2022/12/12 02:02:07;;;;;;;;;;;;;;;1.91;59.18;98422.22;4346092;32;34872;-64
2022/12/12 02:04:35;;;;;;;;;;;;;;;2.25;59.22;98413.09;4355770;32;34188;-63
2022/12/12 02:07:02;;;;;;;;;;;;;;;1.81;61.78;98414.84;4358272;32;34066;-68
2022/12/12 02:09:30;;;;;;;;;;;;;;;2.40;58.82;98421.81;4360210;32;33187;-65
2022/12/12 02:11:58;;;;;;;;;;;;;;;2.05;59.42;98416.94;4346058;32;33020;-66
2022/12/12 02:14:26;;;;;;;;;;;;;;;2.10;58.55;98425.44;4359803;32;34450;-67
2022/12/12 02:17:00;;;;;;;;;;;;;;;2.40;56.75;98427.09;4352700;32;34271;-65
2022/12/12 02:19:30;;;;;;;;;;;;;;;2.56;57.17;98435.75;4359128;32;31448;-64
2022/12/12 02:22:13;;;;;;;;;;;;;;;2.07;58.19;98430.91;4360050;32;34635;-65
2022/12/12 02:24:49;;;;;;;;;;;;;;;2.42;58.83;98441.91;4361507;32;34901;-68
2022/12/12 02:27:39;;;;;;;;;;;;;;;2.60;57.19;98433.78;4360486;32;34195;-69
2022/12/12 02:30:12;;;;;;;;;;;;;;;2.35;59.07;98437.13;4354831;32;33250;-65
2022/12/12 02:32:57;;;;;;;;;;;;;;;2.20;57.31;98421.28;4360328;32;34848;-68
2022/12/12 02:35:31;;;;;;;;;;;;;;;1.10;60.56;98426.06;4354302;32;32682;-66
2022/12/12 02:38:01;;;;;;;;;;;;;;;2.32;57.07;98425.81;4364666;32;33980;-66
2022/12/12 02:40:31;;;;;;;;;;;;;;;1.49;58.09;98429.94;4365532;32;32596;-66
2022/12/12 02:43:05;;;;;;;;;;;;;;;1.48;58.15;98423.00;4359681;32;33983;-68
2022/12/12 02:45:37;;;;;;;;;;;;;;;1.39;59.43;98423.53;4357508;32;34475;-66
2022/12/12 02:48:28;;;;;;;;;;;;;;;1.12;59.35;98432.09;4359297;32;35210;-69
2022/12/12 02:50:57;;;;;;;;;;;;;;;0.79;59.70;98428.72;4309037;32;31977;-69
2022/12/12 02:53:24;;;;;;;;;;;;;;;1.09;59.07;98429.63;4351705;32;34904;-66
2022/12/12 02:56:01;;;;;;;;;;;;;;;0.98;59.28;98424.13;4357502;32;34285;-65
2022/12/12 02:58:29;;;;;;;;;;;;;;;1.08;58.61;98430.56;4355370;32;35761;-65
2022/12/12 03:01:10;;;;;;;;;;;;;;;1.11;58.23;98427.75;4349739;32;33750;-64
2022/12/12 03:09:21;;;;;;;;;;;;;;;1.43;57.46;98440.84;4354102;32;34088;-66
2022/12/12 03:11:55;;;;;;;;;;;;;;;1.42;57.55;98449.72;4359197;32;33955;-67
2022/12/12 03:14:30;;;;;;;;;;;;;;;1.40;57.07;98444.50;4343277;32;32598;-69
2022/12/12 03:17:00;;;;;;;;;;;;;;;0.92;58.65;98456.91;4339100;32;33164;-68
2022/12/12 03:19:28;;;;;;;;;;;;;;;0.91;60.61;98452.59;4354612;32;34051;-69
2022/12/12 03:22:06;;;;;;;;;;;;;;;1.38;58.11;98464.88;4353679;32;32441;-68
2022/12/12 03:24:35;;;;;;;;;;;;;;;1.99;56.67;98468.31;4353774;32;33900;-68
2022/12/12 03:27:04;;;;;;;;;;;;;;;1.75;56.38;98472.41;4343669;33;33870;-68
2022/12/12 03:29:33;;;;;;;;;;;;;;;1.85;55.84;98470.91;4352219;32;35223;-67
2022/12/12 03:32:03;;;;;;;;;;;;;;;2.43;54.41;98479.72;4355039;32;32841;-68
2022/12/12 03:34:33;;;;;;;;;;;;;;;2.13;55.82;98490.38;4341831;32;34800;-68
2022/12/12 03:37:02;;;;;;;;;;;;;;;2.54;52.83;98488.72;4357663;32;33673;-70
2022/12/12 03:39:30;;;;;;;;;;;;;;;2.67;53.12;98490.59;4341632;33;33895;-67
2022/12/12 03:42:24;;;;;;;;;;;;;;;3.12;51.62;98500.03;4354283;32;33650;-70
2022/12/12 03:44:54;;;;;;;;;;;;;;;3.11;52.11;98500.97;4352115;32;32785;-70
2022/12/12 03:47:25;;;;;;;;;;;;;;;3.27;50.82;98506.13;4355735;32;32911;-68
2022/12/12 03:49:53;;;;;;;;;;;;;;;3.66;49.43;98510.62;4341699;32;34240;-66
2022/12/12 03:52:25;;;;;;;;;;;;;;;4.10;48.44;98504.12;4353105;32;33316;-67
2022/12/12 03:54:55;;;;;;;;;;;;;;;3.63;50.09;98516.13;4350787;32;32060;-67
2022/12/12 03:57:24;;;;;;;;;;;;;;;3.50;49.20;98521.38;4351736;32;34280;-67
2022/12/12 03:59:59;;;;;;;;;;;;;;;3.39;50.20;98518.56;4354332;32;34433;-67
2022/12/12 04:02:43;;;;;;;;;;;;;;;3.45;49.37;98528.72;4351724;32;33630;-66
2022/12/12 04:05:15;;;;;;;;;;;;;;;3.51;49.90;98524.84;4353068;32;34010;-68
2022/12/12 04:07:44;;;;;;;;;;;;;;;3.44;48.84;98524.41;4342966;32;33123;-68
2022/12/12 04:13:20;;;;;;;;;;;;;;;3.87;48.51;98528.66;4348422;32;33502;-66
2022/12/12 04:15:55;;;;;;;;;;;;;;;3.11;49.39;98532.69;4346623;32;32833;-66
2022/12/12 04:18:31;;;;;;;;;;;;;;;3.31;48.47;98536.72;4348967;32;34047;-67
2022/12/12 04:24:09;;;;;;;;;;;;;;;2.54;50.25;98552.09;4355917;32;33890;-68
2022/12/12 04:26:40;;;;;;;;;;;;;;;2.41;50.28;98556.44;4354978;32;34077;-69
2022/12/12 04:29:08;;;;;;;;;;;;;;;3.02;49.33;98552.66;4343574;32;34166;-69
2022/12/12 04:31:37;;;;;;;;;;;;;;;3.14;48.04;98560.72;4354436;32;32796;-69
2022/12/12 04:34:06;;;;;;;;;;;;;;;3.17;48.00;98560.53;4334873;32;33259;-68
2022/12/12 04:36:34;;;;;;;;;;;;;;;3.14;48.39;98569.50;4354220;32;34145;-68
2022/12/12 04:39:01;;;;;;;;;;;;;;;2.52;48.48;98572.47;4354875;32;33077;-69
2022/12/12 04:41:29;;;;;;;;;;;;;;;3.10;47.87;98562.72;4348264;32;32806;-68
2022/12/12 04:43:56;;;;;;;;;;;;;;;2.21;49.54;98576.09;4353991;32;33118;-70
2022/12/12 04:46:24;;;;;;;;;;;;;;;2.77;49.17;98573.63;4342291;32;33487;-69
2022/12/12 04:49:00;;;;;;;;;;;;;;;2.78;48.27;98575.31;4347524;32;34011;-68
2022/12/12 04:51:29;;;;;;;;;;;;;;;3.15;47.80;98578.31;4340913;32;34596;-69
2022/12/12 04:53:59;;;;;;;;;;;;;;;3.26;46.07;98581.13;4343270;32;33391;-70
2022/12/12 04:56:27;;;;;;;;;;;;;;;3.70;45.12;98585.34;4337969;32;35333;-69
2022/12/12 04:58:55;;;;;;;;;;;;;;;3.93;44.90;98597.09;4350554;32;33765;-67
2022/12/12 05:01:28;;;;;;;;;;;;;;;4.14;44.30;98585.06;4354214;32;33789;-68
2022/12/12 05:03:57;;;;;;;;;;;;;;;3.54;45.08;98589.94;4353806;32;32813;-67
2022/12/12 05:06:29;;;;;;;;;;;;;;;3.34;45.73;98585.91;4354154;32;33015;-66
2022/12/12 05:08:56;;;;;;;;;;;;;;;3.60;45.08;98590.41;4356192;32;35514;-65
2022/12/12 05:11:24;;;;;;;;;;;;;;;3.74;45.15;98589.50;4349783;32;33661;-68
2022/12/12 05:13:51;;;;;;;;;;;;;;;3.92;44.71;98596.25;4352002;32;32032;-67
2022/12/12 05:16:25;;;;;;;;;;;;;;;3.57;44.90;98590.59;4354335;32;34832;-67
2022/12/12 05:18:53;;;;;;;;;;;;;;;3.74;44.46;98592.13;4355381;32;33763;-69
2022/12/12 05:21:20;;;;;;;;;;;;;;;2.72;46.99;98596.81;4353715;32;35264;-68
2022/12/12 05:23:47;;;;;;;;;;;;;;;2.71;47.67;98592.50;4355065;32;33168;-68
2022/12/12 05:26:17;;;;;;;;;;;;;;;3.25;46.65;98592.66;4355513;32;35250;-70
2022/12/12 05:28:44;;;;;;;;;;;;;;;3.58;45.58;98602.88;4338316;32;32861;-68
2022/12/12 05:31:11;;;;;;;;;;;;;;;2.91;47.68;98589.47;4353829;32;35344;-68
2022/12/12 05:33:39;;;;;;;;;;;;;;;2.76;47.83;98596.56;4344927;32;33369;-68
2022/12/12 05:36:06;;;;;;;;;;;;;;;3.16;46.45;98595.88;4355113;32;33589;-68
2022/12/12 05:38:33;;;;;;;;;;;;;;;2.80;47.45;98600.69;4352986;32;35383;-68
2022/12/12 05:41:01;;;;;;;;;;;;;;;2.98;47.60;98598.69;4357286;32;33937;-68
2022/12/12 05:43:28;;;;;;;;;;;;;;;2.71;47.66;98603.91;4355225;32;33475;-65
2022/12/12 05:45:55;;;;;;;;;;;;;;;2.92;47.48;98604.41;4354400;32;34943;-67
2022/12/12 05:48:22;;;;;;;;;;;;;;;3.07;46.65;98607.88;4352809;32;33850;-66
2022/12/12 05:50:51;;;;;;;;;;;;;;;2.65;48.68;98616.63;4357126;32;34938;-67
2022/12/12 05:53:18;;;;;;;;;;;;;;;2.08;49.31;98622.63;4357272;32;33062;-67
2022/12/12 05:55:48;;;;;;;;;;;;;;;2.90;47.37;98616.00;4354601;32;33146;-74
2022/12/12 05:58:15;;;;;;;;;;;;;;;2.94;46.61;98617.50;4356856;32;35207;-66
2022/12/12 06:00:42;;;;;;;;;;;;;;;2.72;48.60;98612.66;4353358;32;34893;-66
2022/12/12 06:03:10;;;;;;;;;;;;;;;3.10;47.58;98620.03;4353634;32;33117;-66
2022/12/12 06:05:37;;;;;;;;;;;;;;;3.30;45.62;98616.16;4352758;32;33683;-66
2022/12/12 06:08:04;;;;;;;;;;;;;;;2.68;47.86;98621.75;4356825;32;35734;-67
2022/12/12 06:10:31;;;;;;;;;;;;;;;2.79;46.86;98614.87;4356504;32;34788;-70
2022/12/12 06:12:59;;;;;;;;;;;;;;;2.63;47.71;98624.62;4358147;32;33247;-67
2022/12/12 06:15:26;;;;;;;;;;;;;;;2.59;48.48;98614.34;4356263;32;35194;-68
2022/12/12 06:17:53;;;;;;;;;;;;;;;2.91;46.75;98620.31;4356523;32;35132;-68
2022/12/12 06:20:21;;;;;;;;;;;;;;;2.79;46.81;98622.78;4357342;32;33858;-67
2022/12/12 06:22:48;;;;;;;;;;;;;;;2.95;46.30;98629.75;4356078;32;33314;-66
2022/12/12 06:25:20;;;;;;;;;;;;;;;2.90;47.51;98634.50;4356745;32;32720;-68
2022/12/12 06:27:47;;;;;;;;;;;;;;;2.89;45.63;98640.72;4352001;32;34801;-67
2022/12/12 06:30:14;;;;;;;;;;;;;;;2.90;46.55;98638.00;4357703;32;33215;-66
2022/12/12 06:32:42;;;;;;;;;;;;;;;3.31;46.87;98639.88;4355225;32;33565;-67
2022/12/12 06:35:09;;;;;;;;;;;;;;;2.97;47.06;98644.59;4355261;32;35300;-67
2022/12/12 06:37:37;;;;;;;;;;;;;;;2.93;47.75;98648.38;4352905;32;35014;-67
2022/12/12 06:40:05;;;;;;;;;;;;;;;3.50;46.55;98651.00;4356587;32;34386;-67
2022/12/12 06:42:32;;;;;;;;;;;;;;;3.44;45.65;98655.81;4355710;32;33690;-67
2022/12/12 06:45:00;;;;;;;;;;;;;;;3.53;45.26;98647.28;4356114;32;34443;-66
2022/12/12 06:47:27;;;;;;;;;;;;;;;2.98;47.50;98658.66;4351318;32;34038;-66
2022/12/12 06:49:54;;;;;;;;;;;;;;;3.33;47.37;98660.91;4358973;32;33902;-66
2022/12/12 06:52:21;;;;;;;;;;;;;;;3.94;44.56;98662.31;4357704;32;33384;-66
2022/12/12 06:54:49;;;;;;;;;;;;;;;4.32;43.73;98667.75;4358037;32;34269;-66
2022/12/12 06:57:16;;;;;;;;;;;;;;;4.47;45.07;98660.59;4357251;32;33071;-67
2022/12/12 06:59:43;;;;;;;;;;;;;;;5.06;43.10;98663.59;4356206;32;34424;-69
2022/12/12 07:02:11;;;;;;;;;;;;;;;6.14;40.75;98661.28;4357783;32;33323;-67
2022/12/12 07:04:38;;;;;;;;;;;;;;;6.47;40.34;98669.38;4356622;32;33852;-69
2022/12/12 07:07:05;;;;;;;;;;;;;;;6.58;38.90;98665.94;4359644;32;34185;-69
2022/12/12 07:09:33;;;;;;;;;;;;;;;6.42;39.73;98668.91;4359362;32;34155;-68
2022/12/12 07:12:00;;;;;;;;;;;;;;;6.26;39.60;98671.84;4355962;32;35600;-69
2022/12/12 07:14:27;;;;;;;;;;;;;;;6.58;39.17;98668.59;4358904;32;34124;-68
2022/12/12 07:16:54;;;;;;;;;;;;;;;6.13;40.75;98671.06;4356078;32;35633;-68
2022/12/12 07:19:22;;;;;;;;;;;;;;;6.44;40.62;98668.75;4356436;32;33861;-67
2022/12/12 07:21:49;;;;;;;;;;;;;;;6.97;38.27;98677.16;4357537;32;33513;-70
2022/12/12 07:24:16;;;;;;;;;;;;;;;7.18;38.04;98680.78;4355435;32;33553;-69
2022/12/12 07:26:43;;;;;;;;;;;;;;;7.52;37.49;98683.50;4357387;32;34906;-69
2022/12/12 07:29:11;;;;;;;;;;;;;;;7.46;37.34;98689.28;4360818;32;33890;-69
2022/12/12 07:31:38;;;;;;;;;;;;;;;8.95;34.22;98679.81;4356391;32;32077;-69
2022/12/12 07:34:05;;;;;;;;;;;;;;;9.48;33.99;98687.72;4355605;32;33875;-70
2022/12/12 07:36:32;;;;;;;;;;;;;;;10.40;32.12;98692.91;4355938;32;33664;-72
2022/12/12 07:39:00;;;;;;;;;;;;;;;10.98;31.09;98697.41;4359198;32;32858;-69
2022/12/12 07:41:27;;;;;;;;;;;;;;;10.42;31.90;98686.44;4357689;32;34043;-69
2022/12/12 07:43:54;;;;;;;;;;;;;;;10.79;31.59;98685.75;4359187;32;32612;-69
2022/12/12 07:46:22;;;;;;;;;;;;;;;10.33;32.23;98692.63;4357068;32;35269;-69
2022/12/12 07:48:50;;;;;;;;;;;;;;;10.47;30.96;98697.59;4349764;32;34828;-70
2022/12/12 07:51:18;;;;;;;;;;;;;;;9.00;35.62;98690.97;4359887;32;34592;-69
2022/12/12 07:53:45;;;;;;;;;;;;;;;9.04;33.90;98689.72;4359520;32;34278;-69
2022/12/12 07:56:14;;;;;;;;;;;;;;;8.88;34.56;98695.50;4359119;32;34241;-69
2022/12/12 07:58:41;;;;;;;;;;;;;;;6.94;37.74;98709.31;4354032;32;33031;-70
2022/12/12 08:01:13;;;;;;;;;;;;;;;8.01;35.46;98706.19;4357700;32;34386;-69
2022/12/12 08:03:44;;;;;;;;;;;;;;;7.71;36.55;98709.50;4358034;32;34008;-69
2022/12/12 08:06:12;;;;;;;;;;;;;;;7.33;37.67;98716.03;4359515;32;33323;-70
2022/12/12 08:08:39;;;;;;;;;;;;;;;7.56;38.06;98726.69;4360667;32;35517;-69
2022/12/12 08:11:08;;;;;;;;;;;;;;;7.48;38.02;98721.97;4358361;32;34929;-69
2022/12/12 08:13:36;;;;;;;;;;;;;;;7.59;36.51;98719.31;4344535;32;32729;-70
2022/12/12 08:16:03;;;;;;;;;;;;;;;7.62;37.20;98723.56;4358523;32;34373;-69
2022/12/12 08:18:31;;;;;;;;;;;;;;;6.87;38.76;98724.03;4356163;32;34123;-70
2022/12/12 08:20:59;;;;;;;;;;;;;;;7.78;36.90;98715.19;4356469;32;33459;-70
2022/12/12 08:23:26;;;;;;;;;;;;;;;6.66;38.80;98724.69;4357267;32;34181;-70
2022/12/12 08:25:54;;;;;;;;;;;;;;;7.47;37.46;98720.28;4355796;32;32963;-70
2022/12/12 08:28:21;;;;;;;;;;;;;;;7.82;38.40;98735.28;4358772;32;34316;-69
2022/12/12 08:30:49;;;;;;;;;;;;;;;7.68;36.27;98729.25;4354327;32;31902;-69
2022/12/12 08:33:16;;;;;;;;;;;;;;;7.31;37.20;98738.41;4355842;32;32841;-69
2022/12/12 08:35:44;;;;;;;;;;;;;;;7.74;37.28;98730.59;4357375;32;35454;-69
2022/12/12 08:38:11;;;;;;;;;;;;;;;7.00;38.13;98736.28;4359389;32;33721;-69
2022/12/12 08:40:40;;;;;;;;;;;;;;;7.39;37.15;98733.34;4360109;32;32109;-69
2022/12/12 08:43:08;;;;;;;;;;;;;;;5.75;39.81;98745.50;4352263;32;34087;-68
2022/12/12 08:45:38;;;;;;;;;;;;;;;5.65;39.80;98742.66;4358739;32;33708;-68
2022/12/12 08:48:06;;;;;;;;;;;;;;;5.83;41.93;98743.13;4355754;32;34126;-68
2022/12/12 08:50:33;;;;;;;;;;;;;;;6.02;39.77;98746.19;4352438;32;34183;-69
2022/12/12 08:53:00;;;;;;;;;;;;;;;6.00;40.12;98740.16;4354855;32;34111;-68
2022/12/12 08:55:29;;;;;;;;;;;;;;;6.62;38.71;98738.34;4357019;32;35752;-68
2022/12/12 08:57:56;;;;;;;;;;;;;;;6.61;38.96;98739.28;4358165;32;34377;-68
2022/12/12 09:00:23;;;;;;;;;;;;;;;6.18;38.89;98742.44;4357068;32;32251;-68
2022/12/12 09:02:51;;;;;;;;;;;;;;;7.96;36.52;98734.19;4355790;32;35422;-69
2022/12/12 09:05:18;;;;;;;;;;;;;;;10.50;32.65;98733.94;4355036;32;33834;-68
2022/12/12 09:07:45;;;;;;;;;;;;;;;10.68;31.32;98731.38;4357765;32;34181;-69
2022/12/12 09:10:13;;;;;;;;;;;;;;;8.63;34.41;98734.94;4360757;32;33048;-69
2022/12/12 09:12:40;;;;;;;;;;;;;;;8.61;34.08;98736.84;4358855;32;35153;-68
2022/12/12 09:15:08;;;;;;;;;;;;;;;7.97;35.18;98723.41;4334575;32;796076;-68
2022/12/12 09:17:36;;;;;;;;;;;;;;;7.53;35.26;98732.25;4360248;32;33899;-69
2022/12/12 09:20:03;;;;;;;;;;;;;;;8.27;34.55;98724.56;4355805;32;31898;-68
2022/12/12 09:22:30;;;;;;;;;;;;;;;8.78;33.29;98730.13;4354724;32;34086;-68
2022/12/12 09:24:59;;;;;;;;;;;;;;;8.41;35.62;98716.34;4350496;32;34068;-69
2022/12/12 09:27:26;;;;;;;;;;;;;;;7.00;36.48;98724.81;4353752;32;34848;-69
2022/12/12 09:29:53;;;;;;;;;;;;;;;7.19;37.92;98721.56;4356458;32;34099;-68
2022/12/12 09:32:21;;;;;;;;;;;;;;;6.79;38.09;98723.78;4352234;32;34203;-67
2022/12/12 09:34:51;;;;;;;;;;;;;;;6.27;40.79;98728.50;4353755;32;33462;-68
2022/12/12 09:37:18;;;;;;;;;;;;;;;5.90;39.00;98743.53;4358744;32;33631;-69
2022/12/12 09:39:45;;;;;;;;;;;;;;;7.78;37.00;98742.69;4361024;32;32164;-68
2022/12/12 09:42:19;;;;;;;;;;;;;;;8.73;34.67;98747.47;4357980;32;34445;-71
2022/12/12 09:44:46;;;;;;;;;;;;;;;7.96;35.64;98737.72;4357697;32;34315;-69
2022/12/12 09:47:16;;;;;;;;;;;;;;;6.95;37.40;98738.44;4357018;32;33769;-69
2022/12/12 09:49:43;;;;;;;;;;;;;;;6.36;39.33;98732.28;4360055;32;33425;-69
2022/12/12 09:52:31;;;;;;;;;;;;;;;6.51;38.56;98733.78;4357809;32;33595;-69
2022/12/12 09:54:58;;;;;;;;;;;;;;;6.96;37.91;98733.97;4358848;32;33820;-69
2022/12/12 09:57:34;;;;;;;;;;;;;;;6.86;38.25;98747.12;4343025;32;33880;-68
2022/12/12 10:00:06;;;;;;;;;;;;;;;5.86;40.30;98747.38;4354271;32;33569;-67
2022/12/12 10:02:43;;;;;;;;;;;;;;;6.52;38.50;98754.97;4344797;32;32677;-68
2022/12/12 10:05:29;;;;;;;;;;;;;;;7.07;37.99;98752.63;4349535;32;32846;-66
2022/12/12 10:08:18;;;;;;;;;;;;;;;7.04;37.81;98750.22;4358602;32;34167;-68
2022/12/12 10:10:47;;;;;;;;;;;;;;;6.96;39.04;98765.87;4356222;32;33455;-66
2022/12/12 10:13:16;;;;;;;;;;;;;;;7.36;37.66;98761.03;4345323;32;34226;-67
2022/12/12 10:15:45;;;;;;;;;;;;;;;8.15;36.19;98750.37;4348153;32;33256;-67
2022/12/12 10:18:30;;;;;;;;;;;;;;;8.40;36.39;98751.94;4344540;32;33744;-66
2022/12/12 10:20:59;;;;;;;;;;;;;;;9.07;35.01;98745.50;4344423;32;34462;-68
2022/12/12 10:23:35;;;;;;;;;;;;;;;7.82;37.41;98751.28;4357591;32;32775;-67
2022/12/12 10:26:06;;;;;;;;;;;;;;;6.92;38.76;98749.31;4345720;32;34301;-68
2022/12/12 10:28:33;;;;;;;;;;;;;;;7.51;37.51;98753.66;4360232;32;33632;-67
2022/12/12 10:31:04;;;;;;;;;;;;;;;8.24;35.79;98754.12;4357476;32;34204;-66
2022/12/12 10:33:46;;;;;;;;;;;;;;;7.94;37.01;98752.97;4356574;32;33171;-69
2022/12/12 10:36:26;;;;;;;;;;;;;;;6.12;39.56;98749.03;4345198;32;34325;-68
2022/12/12 10:38:53;;;;;;;;;;;;;;;5.64;41.43;98759.50;4356279;32;35876;-69
2022/12/12 10:41:24;;;;;;;;;;;;;;;5.86;40.97;98761.50;4351888;32;33413;-67
2022/12/12 10:43:53;;;;;;;;;;;;;;;5.74;40.29;98763.22;4356953;32;34080;-66
2022/12/12 10:46:20;;;;;;;;;;;;;;;6.47;39.32;98775.72;4357786;32;34306;-66
2022/12/12 10:48:48;;;;;;;;;;;;;;;5.42;40.10;98767.28;4356809;32;34079;-66
2022/12/12 10:51:16;;;;;;;;;;;;;;;5.29;40.55;98761.97;4361138;32;33586;-67
2022/12/12 10:53:44;;;;;;;;;;;;;;;5.28;39.92;98761.13;4344684;32;32844;-69
2022/12/12 10:56:12;;;;;;;;;;;;;;;4.93;41.38;98768.81;4358192;32;34260;-69
2022/12/12 10:58:40;;;;;;;;;;;;;;;4.09;41.83;98756.66;4345536;32;34128;-69
2022/12/12 11:01:19;;;;;;;;;;;;;;;4.34;40.29;98769.16;4355620;32;33687;-69
2022/12/12 11:04:07;;;;;;;;;;;;;;;3.66;42.14;98775.25;4361336;32;34403;-69
2022/12/12 11:06:36;;;;;;;;;;;;;;;4.44;41.91;98767.63;4347750;32;32897;-70
2022/12/12 11:09:07;;;;;;;;;;;;;;;5.04;41.73;98771.63;4348676;32;32638;-69
2022/12/12 11:11:35;;;;;;;;;;;;;;;6.06;38.29;98771.56;4358968;32;34212;-68
2022/12/12 11:14:02;;;;;;;;;;;;;;;7.41;36.61;98760.69;4344823;32;34082;-68
2022/12/12 11:16:30;;;;;;;;;;;;;;;6.83;38.05;98778.41;4345250;32;34363;-68
2022/12/12 11:19:04;;;;;;;;;;;;;;;5.83;39.32;98769.69;4360380;32;34541;-69
2022/12/12 11:21:32;;;;;;;;;;;;;;;5.22;41.01;98777.44;4353923;32;34423;-69
2022/12/12 11:24:02;;;;;;;;;;;;;;;5.64;41.11;98780.75;4359102;32;35283;-69
2022/12/12 11:26:29;;;;;;;;;;;;;;;5.37;40.51;98771.09;4359012;32;34570;-69
2022/12/12 11:28:58;;;;;;;;;;;;;;;5.10;42.82;98772.97;4342673;32;33868;-69
2022/12/12 11:31:31;;;;;;;;;;;;;;;5.12;41.65;98785.19;4346976;32;34401;-69
2022/12/12 11:34:03;;;;;;;;;;;;;;;4.53;43.29;98791.81;4349886;32;33814;-70
2022/12/12 11:36:32;;;;;;;;;;;;;;;4.35;43.36;98781.47;4353802;32;33928;-69
2022/12/12 11:39:00;;;;;;;;;;;;;;;3.97;44.35;98786.53;4352535;32;33730;-70
2022/12/12 11:41:27;;;;;;;;;;;;;;;3.73;46.62;98791.59;4344918;32;34260;-69
2022/12/12 11:43:56;;;;;;;;;;;;;;;4.42;46.76;98788.06;4353839;32;34888;-69
2022/12/12 11:46:27;;;;;;;;;;;;;;;4.55;44.53;98789.91;4357722;32;37287;-68
2022/12/12 11:48:58;;;;;;;;;;;;;;;4.45;44.74;98794.97;4358538;32;34824;-69
2022/12/12 11:51:30;;;;;;;;;;;;;;;4.47;45.95;98803.66;4361994;32;32839;-70
2022/12/12 11:53:57;;;;;;;;;;;;;;;3.53;48.61;98802.53;4356489;32;33868;-69
2022/12/12 11:56:44;;;;;;;;;;;;;;;3.88;47.51;98805.66;4359616;32;35828;-69
2022/12/12 11:59:30;;;;;;;;;;;;;;;3.96;48.01;98806.88;4344995;32;34383;-68
2022/12/12 12:02:06;;;;;;;;;;;;;;;4.32;46.46;98800.19;4356163;32;34469;-70
2022/12/12 12:04:37;;;;;;;;;;;;;;;4.33;47.39;98807.19;4359165;32;34295;-69
2022/12/12 12:07:24;;;;;;;;;;;;;;;4.80;49.26;98811.22;4358906;32;34304;-68
2022/12/12 12:09:52;;;;;;;;;;;;;;;5.23;46.64;98820.75;4359319;32;34455;-68
2022/12/12 12:12:24;;;;;;;;;;;;;;;4.81;47.28;98817.34;4357900;32;34106;-69
2022/12/12 12:14:57;;;;;;;;;;;;;;;4.27;47.78;98812.03;4351446;32;35142;-69
2022/12/12 12:17:25;;;;;;;;;;;;;;;5.19;45.31;98816.59;4349026;32;33474;-72
2022/12/12 12:19:56;;;;;;;;;;;;;;;4.79;46.53;98811.31;4359530;32;34340;-68
2022/12/12 12:22:29;;;;;;;;;;;;;;;3.96;50.64;98813.97;4343302;32;34685;-69
2022/12/12 12:25:00;;;;;;;;;;;;;;;4.72;49.39;98816.19;4356767;32;34273;-68
2022/12/12 12:27:40;;;;;;;;;;;;;;;5.04;47.06;98818.47;4358225;32;33462;-70
2022/12/12 12:30:21;;;;;;;;;;;;;;;5.17;49.05;98821.16;4360672;32;34267;-70
2022/12/12 12:32:55;;;;;;;;;;;;;;;4.69;48.90;98813.72;4345503;32;31401;-70
2022/12/12 12:35:29;;;;;;;;;;;;;;;5.33;46.11;98800.62;4343507;32;32286;-69
2022/12/12 12:38:15;;;;;;;;;;;;;;;5.40;46.32;98809.00;4360816;32;35686;-70
2022/12/12 12:40:49;;;;;;;;;;;;;;;4.35;48.82;98820.34;4358793;32;33454;-70
2022/12/12 12:43:19;;;;;;;;;;;;;;;4.23;50.38;98810.53;4345450;32;32893;-68
2022/12/12 12:45:59;;;;;;;;;;;;;;;4.40;49.86;98820.91;4353296;32;33835;-69
2022/12/12 12:48:50;;;;;;;;;;;;;;;4.60;49.29;98822.28;4346630;32;34556;-69
2022/12/12 12:51:17;;;;;;;;;;;;;;;4.80;49.06;98831.56;4353204;32;33555;-71
2022/12/12 12:53:44;;;;;;;;;;;;;;;4.80;47.43;98840.38;4344355;32;31684;-70
2022/12/12 12:56:25;;;;;;;;;;;;;;;4.53;47.54;98834.22;4359774;32;34309;-70
2022/12/12 12:58:54;;;;;;;;;;;;;;;3.70;51.07;98837.63;4341613;32;32957;-69
2022/12/12 13:01:32;;;;;;;;;;;;;;;3.83;49.84;98843.00;4345338;32;34067;-69
2022/12/12 13:04:02;;;;;;;;;;;;;;;3.65;49.56;98841.47;4360627;32;33319;-70
2022/12/12 13:06:35;;;;;;;;;;;;;;;4.07;48.32;98839.78;4360412;32;34177;-70
2022/12/12 13:09:12;;;;;;;;;;;;;;;3.86;47.88;98839.34;4357220;32;34558;-69
2022/12/12 13:11:40;;;;;;;;;;;;;;;3.67;48.40;98845.75;4360032;32;34245;-69
2022/12/12 13:14:26;;;;;;;;;;;;;;;3.38;48.78;98847.50;4346476;32;34684;-68
2022/12/12 13:16:57;;;;;;;;;;;;;;;3.32;49.62;98847.03;4358246;32;33503;-69
2022/12/12 13:19:30;;;;;;;;;;;;;;;3.86;48.68;98842.81;4346117;32;35459;-69
2022/12/12 13:22:00;;;;;;;;;;;;;;;3.32;47.68;98850.50;4359031;32;34981;-69
2022/12/12 13:24:38;;;;;;;;;;;;;;;3.79;48.02;98846.81;4335818;32;34323;-70